Time;durP1;ratioP1;P1;durP2;ratioP2;P2;SDS_P1;SDS_P2;PMS_P1;PMS_P2;Temp;Humidity;BMP_temperature;BMP_pressure;BME280_temperature;BME280_humidity;BME280_pressure;Samples;Min_cycle;Max_cycle;Signal;HPM_P1;HPM_P2
2023/07/11 00:00:50;;;;;;;5.22;1.80;;;;;;;;;;5106882;28;20035;-67
2023/07/11 00:03:17;;;;;;;6.57;2.50;;;;;;;;;;5103750;27;20043;-67
2023/07/11 00:05:43;;;;;;;5.60;1.75;;;;;;;;;;5108410;28;20040;-67
2023/07/11 00:08:09;;;;;;;6.97;2.28;;;;;;;;;;5104950;27;20067;-67
2023/07/11 00:10:35;;;;;;;7.20;2.20;;;;;;;;;;5109894;27;20051;-67
2023/07/11 00:13:02;;;;;;;6.10;1.80;;;;;;;;;;5110123;27;20395;-67
2023/07/11 00:15:28;;;;;;;6.80;2.72;;;;;;;;;;5107736;28;20052;-67
2023/07/11 00:17:54;;;;;;;5.45;1.92;;;;;;;;;;5103193;28;20173;-67
2023/07/11 00:20:20;;;;;;;7.25;1.95;;;;;;;;;;5107779;28;20055;-67
2023/07/11 00:22:46;;;;;;;6.72;2.45;;;;;;;;;;5102142;28;20448;-67
2023/07/11 00:25:13;;;;;;;6.15;2.17;;;;;;;;;;5110779;28;20067;-67
2023/07/11 00:27:39;;;;;;;10.30;5.03;;;;;;;;;;5109931;27;20067;-67
2023/07/11 00:30:06;;;;;;;20.20;11.63;;;;;;;;;;5103959;28;20036;-67
2023/07/11 00:32:34;;;;;;;30.17;17.30;;;;;;;;;;5144503;27;20070;-67
2023/07/11 00:35:00;;;;;;;21.40;12.77;;;;;;;;;;5107068;27;20044;-67
2023/07/11 00:37:26;;;;;;;17.20;9.15;;;;;;;;;;5108940;27;20039;-67
2023/07/11 00:39:52;;;;;;;17.20;10.38;;;;;;;;;;5111580;28;20047;-67
2023/07/11 00:42:18;;;;;;;13.77;6.80;;;;;;;;;;5107859;28;20403;-67
2023/07/11 00:44:58;;;;;;;14.35;7.38;;;;;;;;;;5107514;27;20436;-67
2023/07/11 00:47:26;;;;;;;10.20;4.65;;;;;;;;;;5111520;28;20533;-67
2023/07/11 00:49:55;;;;;;;10.13;3.50;;;;;;;;;;5111701;28;20087;-67
2023/07/11 00:52:21;;;;;;;7.18;2.78;;;;;;;;;;5109672;28;20047;-67
2023/07/11 00:54:50;;;;;;;5.45;2.58;;;;;;;;;;5103193;28;20044;-67
2023/07/11 00:57:18;;;;;;;6.38;2.70;;;;;;;;;;5100737;27;20053;-67
2023/07/11 00:59:44;;;;;;;4.82;1.98;;;;;;;;;;5104643;28;20055;-67
2023/07/11 01:02:17;;;;;;;6.63;2.35;;;;;;;;;;5105351;27;20039;-67
2023/07/11 01:04:43;;;;;;;7.38;2.55;;;;;;;;;;5107635;28;20406;-67
2023/07/11 01:07:11;;;;;;;8.35;2.38;;;;;;;;;;5105739;28;20129;-67
2023/07/11 01:09:37;;;;;;;8.65;2.40;;;;;;;;;;5111044;28;20483;-67
2023/07/11 01:12:07;;;;;;;10.52;2.42;;;;;;;;;;5106059;28;20122;-67
2023/07/11 01:14:33;;;;;;;4.78;2.00;;;;;;;;;;5105803;28;20047;-67
2023/07/11 01:17:00;;;;;;;8.38;2.08;;;;;;;;;;5109556;28;20043;-67
2023/07/11 01:19:26;;;;;;;7.72;2.72;;;;;;;;;;5096628;28;20491;-67
2023/07/11 01:21:52;;;;;;;6.57;2.30;;;;;;;;;;5101324;28;20051;-67
2023/07/11 01:24:19;;;;;;;6.00;2.00;;;;;;;;;;5107161;27;20039;-67
2023/07/11 01:26:45;;;;;;;5.95;2.22;;;;;;;;;;5094179;27;20565;-67
2023/07/11 01:29:11;;;;;;;7.28;1.80;;;;;;;;;;5105665;28;20049;-67
2023/07/11 01:31:37;;;;;;;8.68;1.83;;;;;;;;;;5106943;27;20048;-67
2023/07/11 01:34:05;;;;;;;8.07;2.40;;;;;;;;;;5100787;28;20105;-67
2023/07/11 01:36:32;;;;;;;5.65;1.90;;;;;;;;;;5105663;28;20047;-67
2023/07/11 01:38:59;;;;;;;6.07;2.20;;;;;;;;;;5112159;28;20071;-67
2023/07/11 01:41:25;;;;;;;7.22;2.03;;;;;;;;;;5105288;28;20119;-67
2023/07/11 01:43:52;;;;;;;7.20;1.63;;;;;;;;;;5105975;28;20096;-67
2023/07/11 01:46:18;;;;;;;8.65;2.13;;;;;;;;;;5107996;28;20044;-67
2023/07/11 01:48:44;;;;;;;6.13;1.60;;;;;;;;;;5105608;28;20506;-67
2023/07/11 01:51:11;;;;;;;4.75;1.50;;;;;;;;;;5099435;28;20180;-67
2023/07/11 01:53:37;;;;;;;6.00;1.70;;;;;;;;;;5132634;27;20039;-67
2023/07/11 01:56:04;;;;;;;5.93;1.83;;;;;;;;;;5106466;28;20124;-67
2023/07/11 01:58:30;;;;;;;9.35;2.10;;;;;;;;;;5105185;28;20455;-67
2023/07/11 02:00:57;;;;;;;7.60;1.88;;;;;;;;;;5104871;28;20036;-67
2023/07/11 02:03:24;;;;;;;6.22;2.03;;;;;;;;;;5108674;28;20084;-67
2023/07/11 02:05:50;;;;;;;6.25;2.10;;;;;;;;;;5108296;28;20118;-67
2023/07/11 02:08:16;;;;;;;7.10;1.58;;;;;;;;;;5107538;28;20561;-66
2023/07/11 02:10:43;;;;;;;8.02;1.70;;;;;;;;;;5107061;28;20040;-67
2023/07/11 02:13:10;;;;;;;5.93;1.70;;;;;;;;;;5108972;28;20043;-67
2023/07/11 02:15:36;;;;;;;4.32;1.45;;;;;;;;;;5106258;28;20036;-67
2023/07/11 02:18:03;;;;;;;6.05;1.50;;;;;;;;;;5109277;28;20131;-67
2023/07/11 02:20:29;;;;;;;5.80;1.67;;;;;;;;;;5104289;28;20043;-67
2023/07/11 02:22:55;;;;;;;7.97;2.15;;;;;;;;;;5101595;28;20039;-67
2023/07/11 02:25:21;;;;;;;6.43;1.98;;;;;;;;;;5108309;28;20036;-67
2023/07/11 02:27:47;;;;;;;8.90;2.00;;;;;;;;;;5108493;28;20040;-67
2023/07/11 02:30:13;;;;;;;8.75;2.13;;;;;;;;;;5097787;28;20054;-67
2023/07/11 02:32:41;;;;;;;6.57;1.63;;;;;;;;;;5108723;28;20372;-67
2023/07/11 02:35:08;;;;;;;5.88;2.30;;;;;;;;;;5090726;28;20036;-67
2023/07/11 02:37:34;;;;;;;4.35;1.80;;;;;;;;;;5102992;28;20051;-67
2023/07/11 02:40:00;;;;;;;5.28;1.80;;;;;;;;;;5103804;28;20060;-67
2023/07/11 02:42:26;;;;;;;5.65;2.00;;;;;;;;;;5109399;28;20047;-67
2023/07/11 02:44:52;;;;;;;5.47;2.40;;;;;;;;;;5101426;28;20153;-67
2023/07/11 02:47:19;;;;;;;5.18;2.00;;;;;;;;;;5106099;28;20086;-67
2023/07/11 02:49:45;;;;;;;7.93;2.05;;;;;;;;;;5102327;28;20056;-67
2023/07/11 02:52:11;;;;;;;4.93;1.80;;;;;;;;;;5105733;28;20112;-67
2023/07/11 02:54:37;;;;;;;6.53;2.10;;;;;;;;;;5102736;28;20036;-67
2023/07/11 02:57:06;;;;;;;5.32;1.73;;;;;;;;;;5105876;28;20454;-67
2023/07/11 02:59:33;;;;;;;3.83;2.08;;;;;;;;;;5088178;28;20043;-67
2023/07/11 03:01:59;;;;;;;7.80;2.22;;;;;;;;;;5105115;28;20037;-67
2023/07/11 03:04:26;;;;;;;6.43;2.35;;;;;;;;;;5110659;28;20062;-67
2023/07/11 03:06:58;;;;;;;9.25;2.15;;;;;;;;;;5105227;28;20040;-67
2023/07/11 03:09:25;;;;;;;10.35;2.58;;;;;;;;;;5109533;28;20061;-67
2023/07/11 03:11:51;;;;;;;9.30;2.00;;;;;;;;;;5104986;27;20051;-67
2023/07/11 03:14:18;;;;;;;7.93;3.17;;;;;;;;;;5103071;28;20046;-67
2023/07/11 03:16:45;;;;;;;6.07;2.22;;;;;;;;;;5107029;28;20051;-67
2023/07/11 03:19:11;;;;;;;6.25;2.63;;;;;;;;;;5098506;27;20059;-67
2023/07/11 03:21:37;;;;;;;4.93;1.92;;;;;;;;;;5105647;27;20032;-67
2023/07/11 03:24:03;;;;;;;4.32;1.98;;;;;;;;;;5105526;27;21789;-67
2023/07/11 03:26:30;;;;;;;5.00;2.42;;;;;;;;;;5110855;27;20118;-67
2023/07/11 03:28:56;;;;;;;7.00;2.63;;;;;;;;;;5110975;28;20374;-67
2023/07/11 03:31:22;;;;;;;5.00;2.50;;;;;;;;;;5109116;27;20061;-67
2023/07/11 03:33:48;;;;;;;7.63;2.50;;;;;;;;;;5111589;28;20035;-67
2023/07/11 03:36:14;;;;;;;8.60;2.22;;;;;;;;;;5110896;27;20063;-67
2023/07/11 03:38:41;;;;;;;6.05;2.15;;;;;;;;;;5113383;28;20044;-67
2023/07/11 03:41:07;;;;;;;7.55;2.45;;;;;;;;;;5108511;28;20387;-67
2023/07/11 03:43:33;;;;;;;8.70;2.40;;;;;;;;;;5109185;27;20039;-66
2023/07/11 03:45:59;;;;;;;7.05;2.50;;;;;;;;;;5110098;28;20510;-63
2023/07/11 03:48:25;;;;;;;5.82;2.17;;;;;;;;;;5111064;28;20060;-66
2023/07/11 03:50:52;;;;;;;7.13;2.20;;;;;;;;;;5102318;28;20063;-67
2023/07/11 03:53:18;;;;;;;7.53;2.63;;;;;;;;;;5110129;27;20051;-67
2023/07/11 03:55:45;;;;;;;10.35;2.33;;;;;;;;;;5143215;27;20471;-67
2023/07/11 03:58:11;;;;;;;6.93;2.08;;;;;;;;;;5113065;28;20092;-67
2023/07/11 04:00:37;;;;;;;5.53;2.50;;;;;;;;;;5109076;28;20487;-66
2023/07/11 04:03:04;;;;;;;8.23;2.92;;;;;;;;;;5094525;28;20046;-67
2023/07/11 04:05:30;;;;;;;6.93;2.45;;;;;;;;;;5138434;27;20063;-67
2023/07/11 04:07:57;;;;;;;7.25;2.13;;;;;;;;;;5108152;27;20039;-67
2023/07/11 04:10:23;;;;;;;7.43;2.42;;;;;;;;;;5111647;28;20483;-67
2023/07/11 04:12:50;;;;;;;7.65;2.22;;;;;;;;;;5109083;28;20032;-67
2023/07/11 04:15:16;;;;;;;12.38;2.47;;;;;;;;;;5112703;28;20135;-67
2023/07/11 04:17:42;;;;;;;5.85;2.58;;;;;;;;;;5104604;28;20119;-67
2023/07/11 04:20:09;;;;;;;8.02;2.53;;;;;;;;;;5109236;27;20201;-67
2023/07/11 04:22:36;;;;;;;7.55;2.33;;;;;;;;;;5115252;27;20054;-67
2023/07/11 04:25:03;;;;;;;8.93;2.60;;;;;;;;;;5110536;28;20128;-66
2023/07/11 04:27:29;;;;;;;9.50;3.05;;;;;;;;;;5100816;28;20055;-67
2023/07/11 04:29:55;;;;;;;6.82;2.88;;;;;;;;;;5111223;27;20487;-67
2023/07/11 04:32:21;;;;;;;12.05;2.95;;;;;;;;;;5105085;27;20040;-67
2023/07/11 04:34:49;;;;;;;15.95;4.00;;;;;;;;;;5108294;27;20069;-67
2023/07/11 04:37:15;;;;;;;10.48;3.30;;;;;;;;;;5099263;28;20531;-66
2023/07/11 04:39:41;;;;;;;10.20;3.45;;;;;;;;;;5109636;27;20079;-67
2023/07/11 04:42:08;;;;;;;8.93;3.25;;;;;;;;;;5093452;28;20138;-65
2023/07/11 04:44:34;;;;;;;10.82;4.30;;;;;;;;;;5105929;27;20035;-66
2023/07/11 04:47:01;;;;;;;7.45;2.80;;;;;;;;;;5097171;27;20079;-65
2023/07/11 04:49:27;;;;;;;8.60;3.72;;;;;;;;;;5102376;28;20105;-65
2023/07/11 04:51:54;;;;;;;15.75;3.97;;;;;;;;;;5109466;28;20047;-66
2023/07/11 04:54:20;;;;;;;11.82;3.63;;;;;;;;;;5095203;28;20427;-67
2023/07/11 04:56:54;;;;;;;9.85;4.18;;;;;;;;;;5105453;27;20039;-67
2023/07/11 04:59:20;;;;;;;13.25;4.80;;;;;;;;;;5108694;28;20043;-67
2023/07/11 05:01:46;;;;;;;10.85;4.03;;;;;;;;;;5097238;28;20127;-67
2023/07/11 05:04:12;;;;;;;10.88;4.25;;;;;;;;;;5099731;28;20046;-67
2023/07/11 05:06:40;;;;;;;8.90;4.22;;;;;;;;;;5107402;27;20340;-67
2023/07/11 05:09:07;;;;;;;10.40;4.78;;;;;;;;;;5107855;28;20046;-66
2023/07/11 05:11:33;;;;;;;10.52;4.70;;;;;;;;;;5112208;28;20044;-66
2023/07/11 05:13:59;;;;;;;17.80;5.50;;;;;;;;;;5107403;28;20562;-66
2023/07/11 05:16:28;;;;;;;12.02;4.75;;;;;;;;;;5112171;28;20043;-66
2023/07/11 05:18:55;;;;;;;10.80;4.57;;;;;;;;;;5103084;28;20421;-66
2023/07/11 05:21:22;;;;;;;9.50;4.40;;;;;;;;;;5111189;27;20044;-66
2023/07/11 05:23:48;;;;;;;12.13;5.00;;;;;;;;;;5104798;27;20100;-67
2023/07/11 05:26:15;;;;;;;11.90;4.82;;;;;;;;;;5107959;27;20085;-67
2023/07/11 05:28:41;;;;;;;12.05;5.25;;;;;;;;;;5102983;28;20044;-66
2023/07/11 05:31:08;;;;;;;11.10;5.07;;;;;;;;;;5101003;28;20043;-66
2023/07/11 05:33:34;;;;;;;12.98;6.90;;;;;;;;;;5110129;28;20051;-66
2023/07/11 05:38:56;;;;;;;13.88;5.97;;;;;;;;;;5108137;28;20059;-66
2023/07/11 05:41:22;;;;;;;12.38;5.18;;;;;;;;;;5110266;28;20083;-66
2023/07/11 05:43:48;;;;;;;14.00;5.93;;;;;;;;;;5111867;28;20058;-66
2023/07/11 05:46:14;;;;;;;13.13;5.20;;;;;;;;;;5111616;28;20043;-66
2023/07/11 05:48:40;;;;;;;11.90;4.45;;;;;;;;;;5110410;28;20444;-65
2023/07/11 05:51:14;;;;;;;9.50;4.57;;;;;;;;;;5109771;28;20089;-66
2023/07/11 05:53:40;;;;;;;9.65;4.53;;;;;;;;;;5111614;28;20039;-64
2023/07/11 05:56:07;;;;;;;12.52;4.82;;;;;;;;;;5111567;28;20093;-64
2023/07/11 05:58:34;;;;;;;13.63;4.93;;;;;;;;;;5106343;28;20039;-64
2023/07/11 06:01:00;;;;;;;14.43;5.50;;;;;;;;;;5104848;28;20048;-64
2023/07/11 06:03:29;;;;;;;10.23;4.20;;;;;;;;;;5109115;28;20130;-63
2023/07/11 06:05:59;;;;;;;12.65;5.55;;;;;;;;;;5111878;28;20043;-66
2023/07/11 06:08:25;;;;;;;10.63;4.65;;;;;;;;;;5105794;28;20101;-66
2023/07/11 06:10:51;;;;;;;16.02;5.32;;;;;;;;;;5125970;27;20425;-67
2023/07/11 06:13:18;;;;;;;8.23;4.70;;;;;;;;;;5111176;28;20043;-67
2023/07/11 06:15:44;;;;;;;16.90;5.50;;;;;;;;;;5091334;28;20044;-66
2023/07/11 06:18:10;;;;;;;12.98;5.00;;;;;;;;;;5108366;28;20560;-66
2023/07/11 06:20:36;;;;;;;13.75;4.85;;;;;;;;;;5103696;28;20058;-66
2023/07/11 06:23:02;;;;;;;11.98;6.10;;;;;;;;;;5110004;28;20317;-66
2023/07/11 06:25:29;;;;;;;11.77;5.75;;;;;;;;;;5111251;28;20040;-66
2023/07/11 06:27:55;;;;;;;11.02;5.85;;;;;;;;;;5109655;28;20171;-66
2023/07/11 06:30:21;;;;;;;12.57;5.68;;;;;;;;;;5099296;28;20043;-66
2023/07/11 06:32:48;;;;;;;11.73;5.82;;;;;;;;;;5106499;28;20044;-66
2023/07/11 06:35:15;;;;;;;14.85;6.90;;;;;;;;;;5108714;28;20039;-67
2023/07/11 06:37:41;;;;;;;54.78;10.15;;;;;;;;;;5105953;28;20077;-67
2023/07/11 06:40:08;;;;;;;9.93;5.75;;;;;;;;;;5111964;28;20517;-67
2023/07/11 06:42:35;;;;;;;11.70;6.55;;;;;;;;;;5102529;27;20467;-86
2023/07/11 06:45:01;;;;;;;11.18;6.80;;;;;;;;;;5110366;27;20118;-64
2023/07/11 06:47:27;;;;;;;14.00;6.43;;;;;;;;;;5111956;28;20040;-66
2023/07/11 06:49:54;;;;;;;13.45;7.00;;;;;;;;;;5109589;27;20109;-68
2023/07/11 06:52:20;;;;;;;10.77;5.93;;;;;;;;;;5111863;28;20100;-68
2023/07/11 06:54:46;;;;;;;14.93;6.07;;;;;;;;;;5105278;27;20054;-67
2023/07/11 06:57:12;;;;;;;11.93;6.47;;;;;;;;;;5112213;27;20063;-68
2023/07/11 06:59:38;;;;;;;10.48;6.30;;;;;;;;;;5108675;28;20058;-68
2023/07/11 07:02:05;;;;;;;13.68;6.60;;;;;;;;;;5112850;28;20047;-68
2023/07/11 07:04:31;;;;;;;20.65;6.43;;;;;;;;;;5113357;28;20506;-68
2023/07/11 07:06:58;;;;;;;16.70;6.18;;;;;;;;;;5105130;28;20040;-68
2023/07/11 07:09:24;;;;;;;13.20;7.25;;;;;;;;;;5114426;28;20052;-68
2023/07/11 07:11:50;;;;;;;14.70;7.47;;;;;;;;;;5109254;28;20103;-68
2023/07/11 07:14:16;;;;;;;12.73;7.03;;;;;;;;;;5110075;27;20051;-68
2023/07/11 07:16:42;;;;;;;16.08;6.55;;;;;;;;;;5111941;28;20468;-68
2023/07/11 07:19:10;;;;;;;16.80;7.75;;;;;;;;;;5094157;28;20035;-68
2023/07/11 07:21:37;;;;;;;14.07;6.40;;;;;;;;;;5113453;27;20048;-68
2023/07/11 07:24:03;;;;;;;14.10;6.13;;;;;;;;;;5112925;27;20047;-68
2023/07/11 07:26:29;;;;;;;13.40;8.00;;;;;;;;;;5102258;27;20043;-68
2023/07/11 07:28:55;;;;;;;13.60;6.32;;;;;;;;;;5112905;28;20044;-68
2023/07/11 07:31:23;;;;;;;13.55;6.38;;;;;;;;;;5116271;27;20403;-68
2023/07/11 07:33:49;;;;;;;12.55;6.72;;;;;;;;;;5113903;27;20442;-68
2023/07/11 07:36:15;;;;;;;12.32;6.30;;;;;;;;;;5113536;27;20051;-68
2023/07/11 07:38:41;;;;;;;13.10;5.93;;;;;;;;;;5113979;28;20345;-68
2023/07/11 07:41:09;;;;;;;11.27;6.25;;;;;;;;;;5113935;28;20483;-68
2023/07/11 07:43:53;;;;;;;10.98;6.13;;;;;;;;;;5104316;28;20056;-68
2023/07/11 07:46:20;;;;;;;16.35;5.80;;;;;;;;;;5112081;28;20119;-68
2023/07/11 07:48:46;;;;;;;12.93;5.40;;;;;;;;;;5114488;28;20095;-68
2023/07/11 07:51:16;;;;;;;11.23;5.47;;;;;;;;;;5113403;28;20119;-68
2023/07/11 07:53:42;;;;;;;10.75;5.47;;;;;;;;;;5086545;28;20054;-68
2023/07/11 07:56:13;;;;;;;12.85;6.00;;;;;;;;;;5114743;28;20036;-68
2023/07/11 07:58:39;;;;;;;11.15;5.88;;;;;;;;;;5100104;28;20052;-68
2023/07/11 08:01:06;;;;;;;14.15;5.63;;;;;;;;;;5098430;27;20049;-68
2023/07/11 08:03:32;;;;;;;12.57;4.93;;;;;;;;;;5112043;28;20519;-68
2023/07/11 08:05:59;;;;;;;11.43;6.03;;;;;;;;;;5112779;28;20039;-68
2023/07/11 08:08:25;;;;;;;12.43;6.15;;;;;;;;;;5112647;27;20059;-68
2023/07/11 08:10:52;;;;;;;12.98;5.30;;;;;;;;;;5110734;27;20036;-68
2023/07/11 08:13:18;;;;;;;9.32;5.45;;;;;;;;;;5112134;28;20506;-68
2023/07/11 08:15:45;;;;;;;13.88;5.68;;;;;;;;;;5106326;28;20069;-68
2023/07/11 08:18:11;;;;;;;9.68;5.35;;;;;;;;;;5111861;27;20209;-66
2023/07/11 08:20:38;;;;;;;10.05;5.47;;;;;;;;;;5102953;27;20483;-66
2023/07/11 08:23:04;;;;;;;13.32;5.45;;;;;;;;;;5100816;27;20072;-67
2023/07/11 08:25:30;;;;;;;9.35;4.75;;;;;;;;;;5112986;27;20156;-67
2023/07/11 08:27:57;;;;;;;11.07;4.38;;;;;;;;;;5105400;27;20038;-68
2023/07/11 08:30:23;;;;;;;13.70;4.72;;;;;;;;;;5091392;28;20603;-67
2023/07/11 08:32:49;;;;;;;9.57;4.38;;;;;;;;;;5099152;27;20064;-67
2023/07/11 08:35:15;;;;;;;12.55;4.00;;;;;;;;;;5112772;28;20040;-67
2023/07/11 08:37:41;;;;;;;5.32;3.22;;;;;;;;;;5106470;28;20441;-67
2023/07/11 08:40:09;;;;;;;7.45;3.13;;;;;;;;;;5112074;27;20075;-67
2023/07/11 08:42:40;;;;;;;9.18;3.28;;;;;;;;;;5109100;27;20051;-67
2023/07/11 08:45:29;;;;;;;10.18;2.72;;;;;;;;;;5136525;27;20066;-67
2023/07/11 08:47:55;;;;;;;8.32;2.92;;;;;;;;;;5099956;28;20044;-67
2023/07/11 08:50:24;;;;;;;10.82;3.00;;;;;;;;;;5101495;28;20407;-67
2023/07/11 08:52:52;;;;;;;7.47;2.85;;;;;;;;;;5096190;28;20130;-67
2023/07/11 08:55:21;;;;;;;10.80;3.33;;;;;;;;;;5100920;27;20043;-67
2023/07/11 08:58:02;;;;;;;10.07;3.00;;;;;;;;;;5109311;28;20044;-67
2023/07/11 09:00:30;;;;;;;11.45;2.60;;;;;;;;;;5108910;27;20043;-68
2023/07/11 09:02:57;;;;;;;10.57;3.20;;;;;;;;;;5103879;27;20044;-65
2023/07/11 09:05:42;;;;;;;9.60;2.83;;;;;;;;;;5111980;27;20035;-65
2023/07/11 09:08:14;;;;;;;7.25;2.72;;;;;;;;;;5112209;27;20458;-67
2023/07/11 09:10:46;;;;;;;7.13;2.70;;;;;;;;;;5112103;28;20395;-67
2023/07/11 09:13:14;;;;;;;7.97;3.25;;;;;;;;;;5110348;28;20566;-67
2023/07/11 09:15:54;;;;;;;6.90;2.45;;;;;;;;;;5111226;28;20057;-67
2023/07/11 09:18:36;;;;;;;7.82;2.97;;;;;;;;;;5111942;28;20391;-67
2023/07/11 09:21:28;;;;;;;8.15;2.95;;;;;;;;;;5112105;28;20035;-67
2023/07/11 09:24:00;;;;;;;10.65;2.83;;;;;;;;;;5103819;27;20044;-68
2023/07/11 09:26:30;;;;;;;7.20;2.85;;;;;;;;;;5112186;27;20043;-68
2023/07/11 09:29:00;;;;;;;11.50;2.80;;;;;;;;;;5111912;27;20118;-68
2023/07/11 09:31:28;;;;;;;10.15;3.15;;;;;;;;;;5109485;27;20475;-78
2023/07/11 09:33:58;;;;;;;11.57;2.78;;;;;;;;;;5098781;28;20047;-69
2023/07/11 09:36:33;;;;;;;9.80;2.90;;;;;;;;;;5107052;27;20047;-69
2023/07/11 09:39:16;;;;;;;12.23;2.92;;;;;;;;;;5105316;28;20048;-69
2023/07/11 09:42:01;;;;;;;10.35;2.88;;;;;;;;;;5108622;27;20055;-68
2023/07/11 09:44:27;;;;;;;6.13;2.45;;;;;;;;;;5108198;28;20051;-69
2023/07/11 09:46:54;;;;;;;8.50;2.72;;;;;;;;;;5086556;28;20402;-69
2023/07/11 09:49:28;;;;;;;5.25;2.28;;;;;;;;;;5110945;28;20094;-69
2023/07/11 09:51:56;;;;;;;9.63;2.25;;;;;;;;;;5102539;28;20114;-69
2023/07/11 09:54:24;;;;;;;8.88;2.40;;;;;;;;;;5111678;28;20066;-68
2023/07/11 09:56:50;;;;;;;7.85;1.95;;;;;;;;;;5106630;28;20047;-69
2023/07/11 09:59:17;;;;;;;11.20;3.10;;;;;;;;;;5104674;28;20050;-82
2023/07/11 10:01:46;;;;;;;7.20;2.70;;;;;;;;;;5103447;28;20388;-68
2023/07/11 10:04:17;;;;;;;10.20;2.63;;;;;;;;;;5110411;28;20050;-68
2023/07/11 10:06:52;;;;;;;7.13;2.75;;;;;;;;;;5111042;27;20039;-68
2023/07/11 10:09:28;;;;;;;8.63;3.03;;;;;;;;;;5112005;28;20035;-68
2023/07/11 10:11:56;;;;;;;9.00;2.65;;;;;;;;;;5110526;28;20043;-68
2023/07/11 10:14:27;;;;;;;9.20;3.17;;;;;;;;;;5110020;28;20040;-68
2023/07/11 10:16:54;;;;;;;8.27;2.60;;;;;;;;;;5111397;28;20126;-68
2023/07/11 10:19:20;;;;;;;7.40;2.63;;;;;;;;;;5110468;28;20491;-69
2023/07/11 10:21:50;;;;;;;8.43;3.03;;;;;;;;;;5108438;28;20122;-68
2023/07/11 10:24:27;;;;;;;6.45;2.40;;;;;;;;;;5109189;28;20138;-68
2023/07/11 10:27:02;;;;;;;10.30;3.13;;;;;;;;;;5112043;28;20483;-68
2023/07/11 10:29:31;;;;;;;10.32;3.08;;;;;;;;;;5109171;28;20040;-68
2023/07/11 10:32:04;;;;;;;12.98;4.25;;;;;;;;;;5108940;28;20067;-68
2023/07/11 10:34:51;;;;;;;7.90;3.03;;;;;;;;;;5110882;28;20075;-68
2023/07/11 10:37:25;;;;;;;19.13;3.58;;;;;;;;;;5097433;28;20036;-68
2023/07/11 10:39:58;;;;;;;11.18;3.10;;;;;;;;;;5110203;28;20055;-68
2023/07/11 10:42:27;;;;;;;10.57;3.53;;;;;;;;;;5110666;28;20052;-68
2023/07/11 10:45:00;;;;;;;10.02;4.05;;;;;;;;;;5111603;28;20040;-68
2023/07/11 10:47:30;;;;;;;11.02;3.45;;;;;;;;;;5110237;28;20103;-68
2023/07/11 10:49:57;;;;;;;11.15;3.40;;;;;;;;;;5101670;28;20499;-68
2023/07/11 10:52:25;;;;;;;7.53;3.13;;;;;;;;;;5109964;28;20139;-68
2023/07/11 10:54:51;;;;;;;11.15;4.38;;;;;;;;;;5102634;28;20482;-68
2023/07/11 10:57:30;;;;;;;10.32;3.28;;;;;;;;;;5103222;28;20043;-68
2023/07/11 10:59:56;;;;;;;9.05;3.20;;;;;;;;;;5106140;28;20134;-68
2023/07/11 11:02:27;;;;;;;10.32;3.67;;;;;;;;;;5108443;28;20088;-68
2023/07/11 11:04:54;;;;;;;11.52;3.53;;;;;;;;;;5098616;28;20164;-68
2023/07/11 11:07:39;;;;;;;9.45;2.83;;;;;;;;;;5106730;28;20023;-68
2023/07/11 11:10:05;;;;;;;7.25;3.47;;;;;;;;;;5103462;28;20055;-68
2023/07/11 11:12:39;;;;;;;8.60;3.28;;;;;;;;;;5101968;28;20036;-68
2023/07/11 11:15:14;;;;;;;15.27;3.92;;;;;;;;;;5109956;28;20535;-68
2023/07/11 11:17:51;;;;;;;12.30;3.63;;;;;;;;;;5110894;28;20441;-68
2023/07/11 11:20:32;;;;;;;10.20;3.35;;;;;;;;;;5110377;28;20043;-68
2023/07/11 11:23:17;;;;;;;9.15;3.40;;;;;;;;;;5103551;28;20337;-68
2023/07/11 11:25:44;;;;;;;10.18;3.70;;;;;;;;;;5108084;28;20057;-67
2023/07/11 11:28:19;;;;;;;10.30;3.88;;;;;;;;;;5114398;27;20043;-68
2023/07/11 11:30:45;;;;;;;6.15;2.95;;;;;;;;;;5109238;27;20073;-69
2023/07/11 11:33:27;;;;;;;12.13;3.92;;;;;;;;;;5114148;27;20042;-65
2023/07/11 11:35:53;;;;;;;8.45;3.10;;;;;;;;;;5113649;27;20044;-67
2023/07/11 11:38:22;;;;;;;7.97;2.88;;;;;;;;;;5109005;27;20450;-67
2023/07/11 11:40:50;;;;;;;11.30;3.08;;;;;;;;;;5114991;28;20491;-77
2023/07/11 11:43:19;;;;;;;11.75;3.20;;;;;;;;;;5112548;27;20050;-66
2023/07/11 11:45:46;;;;;;;8.70;3.05;;;;;;;;;;5110644;27;20040;-66
2023/07/11 11:48:24;;;;;;;12.82;2.60;;;;;;;;;;5112137;27;20043;-66
2023/07/11 11:50:51;;;;;;;10.15;2.78;;;;;;;;;;5114114;27;20040;-66
2023/07/11 11:53:22;;;;;;;9.73;2.60;;;;;;;;;;5111476;27;20040;-65
2023/07/11 11:55:51;;;;;;;8.48;2.75;;;;;;;;;;5113647;27;20138;-67
2023/07/11 11:58:18;;;;;;;8.63;2.55;;;;;;;;;;5117594;27;20406;-66
2023/07/11 12:00:51;;;;;;;10.40;2.45;;;;;;;;;;5097645;27;20612;-66
2023/07/11 12:03:38;;;;;;;6.03;2.10;;;;;;;;;;5112388;27;20047;-66
2023/07/11 12:06:24;;;;;;;11.13;2.70;;;;;;;;;;5110355;27;20054;-66
2023/07/11 12:09:10;;;;;;;7.13;2.45;;;;;;;;;;5113265;28;20032;-66
2023/07/11 12:11:43;;;;;;;7.60;2.10;;;;;;;;;;5107431;27;20088;-68
2023/07/11 12:14:28;;;;;;;7.28;2.22;;;;;;;;;;5111316;27;20071;-80
2023/07/11 12:16:54;;;;;;;6.22;1.90;;;;;;;;;;5137387;27;20104;-69
2023/07/11 12:19:42;;;;;;;7.45;2.20;;;;;;;;;;5112370;27;20185;-66
2023/07/11 12:22:09;;;;;;;7.60;2.13;;;;;;;;;;5112375;27;20464;-66
2023/07/11 12:24:35;;;;;;;9.63;2.38;;;;;;;;;;5113588;27;20043;-66
2023/07/11 12:27:31;;;;;;;10.40;2.00;;;;;;;;;;5110506;27;20054;-66
2023/07/11 12:29:58;;;;;;;8.20;2.58;;;;;;;;;;5111115;27;20047;-66
2023/07/11 12:32:33;;;;;;;7.93;1.80;;;;;;;;;;5112411;28;20043;-65
2023/07/11 12:35:05;;;;;;;6.18;1.88;;;;;;;;;;5113336;28;20047;-65
2023/07/11 12:37:34;;;;;;;5.43;1.77;;;;;;;;;;5111523;28;20096;-66
2023/07/11 12:40:06;;;;;;;5.90;1.48;;;;;;;;;;5113805;28;20098;-66
2023/07/11 12:42:37;;;;;;;9.55;1.90;;;;;;;;;;5112232;28;20108;-67
2023/07/11 12:45:14;;;;;;;7.60;1.55;;;;;;;;;;5113007;27;20402;-66
2023/07/11 12:47:41;;;;;;;4.32;1.30;;;;;;;;;;5111087;27;20134;-66
2023/07/11 12:50:16;;;;;;;4.38;1.55;;;;;;;;;;5107462;28;20044;-66
2023/07/11 12:52:42;;;;;;;4.13;1.15;;;;;;;;;;5095312;28;20471;-67
2023/07/11 12:55:11;;;;;;;3.33;1.05;;;;;;;;;;5104401;28;20035;-66
2023/07/11 12:57:44;;;;;;;5.28;1.02;;;;;;;;;;5111706;27;20044;-67
2023/07/11 13:00:24;;;;;;;3.03;0.90;;;;;;;;;;5110745;27;20070;-67
2023/07/11 13:02:53;;;;;;;5.45;1.23;;;;;;;;;;5111475;28;20039;-67
2023/07/11 13:05:19;;;;;;;4.47;1.35;;;;;;;;;;5113049;28;20046;-66
2023/07/11 13:07:46;;;;;;;4.03;1.05;;;;;;;;;;5111585;27;20043;-67
2023/07/11 13:10:20;;;;;;;4.45;1.35;;;;;;;;;;5108224;28;20380;-67
2023/07/11 13:12:47;;;;;;;5.18;1.08;;;;;;;;;;5105262;28;20428;-66
2023/07/11 13:15:15;;;;;;;3.30;1.02;;;;;;;;;;5112629;27;20047;-67
2023/07/11 13:17:42;;;;;;;3.55;0.98;;;;;;;;;;5102330;28;20047;-67
2023/07/11 13:20:15;;;;;;;2.97;1.00;;;;;;;;;;5111412;28;20120;-67
2023/07/11 13:22:43;;;;;;;4.38;1.10;;;;;;;;;;5112942;28;20060;-67
2023/07/11 13:25:15;;;;;;;4.85;1.15;;;;;;;;;;5109312;28;20050;-67
2023/07/11 13:27:46;;;;;;;7.30;1.45;;;;;;;;;;5099118;28;20590;-69
2023/07/11 13:30:19;;;;;;;6.00;1.10;;;;;;;;;;5112070;28;20063;-70
2023/07/11 13:32:45;;;;;;;5.30;0.98;;;;;;;;;;5112590;28;20052;-67
2023/07/11 13:35:15;;;;;;;4.95;1.13;;;;;;;;;;5112833;28;20063;-67
2023/07/11 13:37:44;;;;;;;7.00;1.65;;;;;;;;;;5111071;27;20391;-64
2023/07/11 13:40:29;;;;;;;4.43;1.05;;;;;;;;;;5111375;28;20053;-67
2023/07/11 13:42:56;;;;;;;4.05;1.10;;;;;;;;;;5111192;28;20134;-72
2023/07/11 13:45:23;;;;;;;6.95;1.67;;;;;;;;;;5109607;27;20040;-77
2023/07/11 13:47:49;;;;;;;7.32;1.73;;;;;;;;;;5099066;27;20047;-80
2023/07/11 13:50:17;;;;;;;7.78;1.30;;;;;;;;;;5098752;28;20051;-75
2023/07/11 13:52:51;;;;;;;8.63;1.70;;;;;;;;;;5111008;28;20051;-75
2023/07/11 13:55:21;;;;;;;5.28;1.30;;;;;;;;;;5102643;28;20067;-75
2023/07/11 13:57:47;;;;;;;4.97;1.45;;;;;;;;;;5112448;27;20490;-67
2023/07/11 14:00:14;;;;;;;4.25;1.25;;;;;;;;;;5107867;28;20055;-67
2023/07/11 14:02:41;;;;;;;4.50;1.10;;;;;;;;;;5108779;27;20134;-67
2023/07/11 14:05:21;;;;;;;3.83;1.25;;;;;;;;;;5111992;28;20406;-67
2023/07/11 14:07:47;;;;;;;5.28;1.40;;;;;;;;;;5114278;28;20050;-67
2023/07/11 14:10:15;;;;;;;4.85;1.40;;;;;;;;;;5112174;28;20047;-67
2023/07/11 14:12:41;;;;;;;4.07;1.40;;;;;;;;;;5111455;28;20044;-67
2023/07/11 14:15:15;;;;;;;5.60;1.10;;;;;;;;;;5112170;28;20047;-67
2023/07/11 14:17:41;;;;;;;4.68;1.23;;;;;;;;;;5091461;28;20547;-67
2023/07/11 14:20:17;;;;;;;4.57;1.30;;;;;;;;;;5105793;28;20112;-67
2023/07/11 14:22:44;;;;;;;3.85;1.10;;;;;;;;;;5112076;28;20137;-67
2023/07/11 14:25:14;;;;;;;6.18;1.50;;;;;;;;;;5111425;28;20036;-67
2023/07/11 14:27:40;;;;;;;5.55;1.77;;;;;;;;;;5110685;28;20073;-67
2023/07/11 14:30:07;;;;;;;4.40;1.00;;;;;;;;;;5111098;28;20454;-67
2023/07/11 14:32:33;;;;;;;5.85;1.30;;;;;;;;;;5111655;28;20049;-67
2023/07/11 14:35:00;;;;;;;5.05;1.02;;;;;;;;;;5110271;28;20201;-67
2023/07/11 14:37:26;;;;;;;6.97;1.58;;;;;;;;;;5112748;28;20126;-67
2023/07/11 14:39:54;;;;;;;4.57;1.20;;;;;;;;;;5111082;28;20035;-67
2023/07/11 14:42:23;;;;;;;4.50;1.23;;;;;;;;;;5110635;28;20063;-67
2023/07/11 14:44:49;;;;;;;6.30;1.48;;;;;;;;;;5112718;28;20054;-67
2023/07/11 14:47:15;;;;;;;4.97;1.23;;;;;;;;;;5111139;28;20100;-67
2023/07/11 14:49:41;;;;;;;4.88;1.27;;;;;;;;;;5114379;28;20051;-67